Zim Luanda — 9HA2029 — position and weather

sailwx.info

Track history (hours):
 
Tides and Currents Weather Stations Pressure Air Temp Water Temp Dewpoint Dewpoint Depression Visibility Wind Speed Wind Dir Waves Ship Positions

Zim Luanda

Last reported at 2014-Oct-31 10:33 UTC. Time now 2014-Oct-31 11:31 UTC.
Position N 38°17' W 024°56'.

Length 260 m; draft 12.4 m.

Type: Ship (hazmat cat A). MMSI: 249830000.

Date/timePositionNaut miles runAvg speedWind from/ knotsBaromVisibWave heightAir tempDewpointWater temp
2014-Oct-31 10:33N 38°17' W 024°56'1515.2
2014-Oct-31 09:34N 38°17' W 024°37'1515.1
2014-Oct-31 08:33N 38°17' W 024°18'1515.1
2014-Oct-31 07:33N 38°17' W 023°59'59615.5
2014-Oct-29 17:06N 36°56' W 011°34'916.0
2014-Oct-29 16:33N 36°53' W 011°23'1615.7
2014-Oct-29 15:33N 36°47' W 011°05'4915.6
2014-Oct-29 12:24N 36°28' W 010°08'1315.5
2014-Oct-29 11:33N 36°23' W 009°53'1515.2
2014-Oct-29 10:33N 36°19' W 009°35'4715.1
2014-Oct-29 07:25N 36°02' W 008°41'15115.3
2014-Oct-28 21:33N 35°58' W 005°35'1514.7
2014-Oct-28 20:33N 36°02' W 005°17'25014.7
2014-Oct-28 03:33N 37°38' W 000°29'1616.0
2014-Oct-28 02:33N 37°52' W 000°18'9213.0
2014-Oct-27 19:31N 39°24' W 000°14'5 5.0
2014-Oct-27 18:33N 39°27' W 000°19'0 0.0
2014-Oct-27 17:32N 39°27' W 000°19'0 0.0
2014-Oct-27 16:33N 39°27' W 000°19'0 0.0
2014-Oct-27 15:33N 39°27' W 000°19'0 0.0
2014-Oct-27 14:32N 39°27' W 000°19'0 0.0
2014-Oct-27 13:32N 39°27' W 000°19'0 0.0
2014-Oct-27 12:33N 39°27' W 000°19'0 0.0
2014-Oct-27 11:32N 39°27' W 000°19'0 0.0
2014-Oct-27 10:32N 39°27' W 000°19'0 0.0
2014-Oct-27 09:32N 39°27' W 000°19'0 0.0
2014-Oct-27 08:32N 39°27' W 000°19'0 0.0
2014-Oct-27 07:32N 39°27' W 000°19'0 0.0
2014-Oct-27 06:33N 39°27' W 000°19'0 0.0
2014-Oct-27 05:32N 39°27' W 000°19'0 0.1
2014-Oct-27 04:33N 39°27' W 000°19'6 5.6
2014-Oct-27 03:33N 39°27' W 000°12'8 8.2
2014-Oct-27 02:33N 39°32' W 000°04'1212.2
2014-Oct-27 01:34N 39°41' E 000°07'1712.1
2014-Oct-27 00:11N 39°53' E 000°22'2012.0
2014-Oct-26 22:34N 40°07' E 000°40'1211.8
2014-Oct-26 21:33N 40°15' E 000°51'1212.2
2014-Oct-26 20:33N 40°24' E 001°03'1412.3
2014-Oct-26 19:27N 40°34' E 001°15'1212.4
2014-Oct-26 18:29N 40°42' E 001°26'1112.4
2014-Oct-26 17:34N 40°50' E 001°37'1512.5
2014-Oct-26 16:23N 41°01' E 001°50'1012.4
2014-Oct-26 15:33N 41°08' E 001°60'1211.8
2014-Oct-26 14:33N 41°17' E 002°10'5 1.0
2014-Oct-26 10:08N 41°21' E 002°10'0 0.0
2014-Oct-26 09:31N 41°21' E 002°10'0 0.0
2014-Oct-26 08:33N 41°21' E 002°10'0 0.0
2014-Oct-26 07:33N 41°21' E 002°10'0 0.0
2014-Oct-26 06:34N 41°21' E 002°10'0 0.5
2014-Oct-26 05:33N 41°21' E 002°10'6 6.3
2014-Oct-26 04:34N 41°15' E 002°09'1212.3
2014-Oct-26 03:33N 41°10' E 001°54'1312.7
2014-Oct-26 02:33N 41°06' E 001°38'1313.0
2014-Oct-26 01:32N 41°03' E 001°21'7 2.1
2014-Oct-25 22:21N 41°06' E 001°13'0 0.0
2014-Oct-25 21:17N 41°06' E 001°13'0 0.0
2014-Oct-25 20:29N 41°06' E 001°13'0 0.0
2014-Oct-25 19:20N 41°06' E 001°13'0 0.0
2014-Oct-25 14:09N 41°06' E 001°13'0 0.0
2014-Oct-25 12:22N 41°06' E 001°13'0 0.1
2014-Oct-25 11:18N 41°05' E 001°13'2 2.9
2014-Oct-25 10:33N 41°03' E 001°12'2214.9
2014-Oct-25 09:04N 41°05' E 001°41'913.0
2014-Oct-25 08:24N 41°06' E 001°52'2218.0
2014-Oct-25 07:10N 41°16' E 002°19'1817.7
2014-Oct-25 06:09N 41°24' E 002°41'3217.9
2014-Oct-25 04:22N 41°39' E 003°18'11817.4
2014-Oct-24 21:33N 42°32' E 005°41'2017.4
2014-Oct-24 20:24N 42°43' E 006°04'1918.0
2014-Oct-24 19:23N 42°50' E 006°27'1617.5
2014-Oct-24 18:28N 42°60' E 006°44'1617.5
2014-Oct-24 17:32N 43°10' E 007°02'1716.9
2014-Oct-24 16:33N 43°21' E 007°19'1616.3
2014-Oct-24 15:33N 43°31' E 007°37'1716.9
2014-Oct-24 14:33N 43°42' E 007°55'1717.4
2014-Oct-24 13:33N 43°53' E 008°13'1717.3
2014-Oct-24 12:33N 44°04' E 008°32'1717.3
2014-Oct-24 11:34N 44°14' E 008°50'10 9.9
2014-Oct-24 10:33N 44°24' E 008°55'1 0.8
2014-Oct-24 09:32N 44°24' E 008°54'0 0.0
2014-Oct-24 08:32N 44°24' E 008°54'0 0.0
2014-Oct-24 07:32N 44°24' E 008°54'0 0.0
2014-Oct-24 06:32N 44°24' E 008°54'0 0.0
2014-Oct-24 05:32N 44°24' E 008°54'0 0.0
2014-Oct-24 04:32N 44°24' E 008°54'0 0.0
2014-Oct-24 03:32N 44°24' E 008°54'0 0.0
2014-Oct-24 02:32N 44°24' E 008°54'0 0.0
2014-Oct-24 01:32N 44°24' E 008°54'0 0.0
2014-Oct-24 00:32N 44°24' E 008°54'0 0.0
2014-Oct-23 23:32N 44°24' E 008°54'0 0.0
2014-Oct-23 22:32N 44°24' E 008°54'0 0.0
2014-Oct-23 21:32N 44°24' E 008°54'0 0.0
2014-Oct-23 20:32N 44°24' E 008°54'0 0.0
2014-Oct-23 19:32N 44°24' E 008°54'0 0.0
2014-Oct-23 18:32N 44°24' E 008°54'0 0.0
2014-Oct-23 17:32N 44°24' E 008°54'0 0.0
2014-Oct-23 16:32N 44°24' E 008°54'0 0.0
2014-Oct-23 15:32N 44°24' E 008°54'1 1.2
2014-Oct-23 14:33N 44°24' E 008°55'9 9.4
2014-Oct-23 13:33N 44°16' E 009°04'1616.5
2014-Oct-23 12:34N 44°05' E 009°19'1716.9
2014-Oct-23 11:34N 43°52' E 009°35'1717.0
2014-Oct-23 10:33N 43°40' E 009°51'1615.9
2014-Oct-23 09:34N 43°31' E 010°09'7 7.3
2014-Oct-23 08:33N 43°35' E 010°18'0 0.0
2014-Oct-23 07:33N 43°35' E 010°18'0 0.0
2014-Oct-23 06:30N 43°35' E 010°18'0 0.0
2014-Oct-23 05:33N 43°35' E 010°18'0 0.0
2014-Oct-23 04:33N 43°35' E 010°18'0 0.0
2014-Oct-23 03:33N 43°35' E 010°18'0 0.0
2014-Oct-23 02:33N 43°35' E 010°18'0 0.0
2014-Oct-23 01:33N 43°35' E 010°18'0 0.0
2014-Oct-23 00:33N 43°35' E 010°18'0 0.0
2014-Oct-22 23:33N 43°35' E 010°18'0 0.0
2014-Oct-22 22:33N 43°35' E 010°18'0 0.0
2014-Oct-22 21:33N 43°35' E 010°18'0 0.0
2014-Oct-22 20:33N 43°35' E 010°18'0 0.0
2014-Oct-22 19:30N 43°35' E 010°18'0 0.0
2014-Oct-22 18:33N 43°35' E 010°18'0 0.0
2014-Oct-22 17:33N 43°35' E 010°18'0 0.0
2014-Oct-22 16:33N 43°35' E 010°18'0 0.0
2014-Oct-22 15:33N 43°35' E 010°18'0 0.0
2014-Oct-22 14:33N 43°35' E 010°18'0 0.0
2014-Oct-22 13:33N 43°35' E 010°18'0 0.0
2014-Oct-22 12:33N 43°35' E 010°18'0 0.0
2014-Oct-22 11:33N 43°35' E 010°18'0 0.0
2014-Oct-22 10:33N 43°35' E 010°18'0 0.0
2014-Oct-22 09:33N 43°35' E 010°18'0 0.0
2014-Oct-22 08:30N 43°35' E 010°18'0 0.0
2014-Oct-22 07:33N 43°35' E 010°18'0 0.0
2014-Oct-22 06:33N 43°35' E 010°18'2 1.9
2014-Oct-22 05:33N 43°33' E 010°17'5 5.2
2014-Oct-22 04:34N 43°29' E 010°12'2 2.4
2014-Oct-22 03:33N 43°27' E 010°13'1211.5
2014-Oct-22 02:33N 43°15' E 010°10'1211.6
2014-Oct-22 01:33N 43°04' E 010°07'1211.8
2014-Oct-22 00:33N 42°53' E 010°04'1410.6
2014-Oct-21 23:17N 42°39' E 010°09'7212.1
2014-Oct-21 17:22N 41°48' E 011°16'  
Track history (hours):
 
Tides and Currents Weather Stations Pressure Air Temp Water Temp Dewpoint Dewpoint Depression Visibility Wind Speed Wind Dir Waves Ship Positions

Zim Luanda

Last reported at 2014-Oct-31 10:33 UTC. Time now 2014-Oct-31 11:31 UTC.
Position N 38°17' W 024°56'.

Length 260 m; draft 12.4 m.

Type: Ship (hazmat cat A). MMSI: 249830000.

Date/timePositionNaut miles runAvg speedWind from/ knotsBaromVisibWave heightAir tempDewpointWater temp
2014-Oct-31 10:33N 38°17' W 024°56'1515.2
2014-Oct-31 09:34N 38°17' W 024°37'1515.1
2014-Oct-31 08:33N 38°17' W 024°18'1515.1
2014-Oct-31 07:33N 38°17' W 023°59'59615.5
2014-Oct-29 17:06N 36°56' W 011°34'916.0
2014-Oct-29 16:33N 36°53' W 011°23'1615.7
2014-Oct-29 15:33N 36°47' W 011°05'4915.6
2014-Oct-29 12:24N 36°28' W 010°08'1315.5
2014-Oct-29 11:33N 36°23' W 009°53'1515.2
2014-Oct-29 10:33N 36°19' W 009°35'4715.1
2014-Oct-29 07:25N 36°02' W 008°41'15115.3
2014-Oct-28 21:33N 35°58' W 005°35'1514.7
2014-Oct-28 20:33N 36°02' W 005°17'25014.7
2014-Oct-28 03:33N 37°38' W 000°29'1616.0
2014-Oct-28 02:33N 37°52' W 000°18'9213.0
2014-Oct-27 19:31N 39°24' W 000°14'5 5.0
2014-Oct-27 18:33N 39°27' W 000°19'0 0.0
2014-Oct-27 17:32N 39°27' W 000°19'0 0.0
2014-Oct-27 16:33N 39°27' W 000°19'0 0.0
2014-Oct-27 15:33N 39°27' W 000°19'0 0.0
2014-Oct-27 14:32N 39°27' W 000°19'0 0.0
2014-Oct-27 13:32N 39°27' W 000°19'0 0.0
2014-Oct-27 12:33N 39°27' W 000°19'0 0.0
2014-Oct-27 11:32N 39°27' W 000°19'0 0.0
2014-Oct-27 10:32N 39°27' W 000°19'0 0.0
2014-Oct-27 09:32N 39°27' W 000°19'0 0.0
2014-Oct-27 08:32N 39°27' W 000°19'0 0.0
2014-Oct-27 07:32N 39°27' W 000°19'0 0.0
2014-Oct-27 06:33N 39°27' W 000°19'0 0.0
2014-Oct-27 05:32N 39°27' W 000°19'0 0.1
2014-Oct-27 04:33N 39°27' W 000°19'6 5.6
2014-Oct-27 03:33N 39°27' W 000°12'8 8.2
2014-Oct-27 02:33N 39°32' W 000°04'1212.2
2014-Oct-27 01:34N 39°41' E 000°07'1712.1
2014-Oct-27 00:11N 39°53' E 000°22'2012.0
2014-Oct-26 22:34N 40°07' E 000°40'1211.8
2014-Oct-26 21:33N 40°15' E 000°51'1212.2
2014-Oct-26 20:33N 40°24' E 001°03'1412.3
2014-Oct-26 19:27N 40°34' E 001°15'1212.4
2014-Oct-26 18:29N 40°42' E 001°26'1112.4
2014-Oct-26 17:34N 40°50' E 001°37'1512.5
2014-Oct-26 16:23N 41°01' E 001°50'1012.4
2014-Oct-26 15:33N 41°08' E 001°60'1211.8
2014-Oct-26 14:33N 41°17' E 002°10'5 1.0
2014-Oct-26 10:08N 41°21' E 002°10'0 0.0
2014-Oct-26 09:31N 41°21' E 002°10'0 0.0
2014-Oct-26 08:33N 41°21' E 002°10'0 0.0
2014-Oct-26 07:33N 41°21' E 002°10'0 0.0
2014-Oct-26 06:34N 41°21' E 002°10'0 0.5
2014-Oct-26 05:33N 41°21' E 002°10'6 6.3
2014-Oct-26 04:34N 41°15' E 002°09'1212.3
2014-Oct-26 03:33N 41°10' E 001°54'1312.7
2014-Oct-26 02:33N 41°06' E 001°38'1313.0
2014-Oct-26 01:32N 41°03' E 001°21'7 2.1
2014-Oct-25 22:21N 41°06' E 001°13'0 0.0
2014-Oct-25 21:17N 41°06' E 001°13'0 0.0
2014-Oct-25 20:29N 41°06' E 001°13'0 0.0
2014-Oct-25 19:20N 41°06' E 001°13'0 0.0
2014-Oct-25 14:09N 41°06' E 001°13'0 0.0
2014-Oct-25 12:22N 41°06' E 001°13'0 0.1
2014-Oct-25 11:18N 41°05' E 001°13'2 2.9
2014-Oct-25 10:33N 41°03' E 001°12'2214.9
2014-Oct-25 09:04N 41°05' E 001°41'913.0
2014-Oct-25 08:24N 41°06' E 001°52'2218.0
2014-Oct-25 07:10N 41°16' E 002°19'1817.7
2014-Oct-25 06:09N 41°24' E 002°41'3217.9
2014-Oct-25 04:22N 41°39' E 003°18'11817.4
2014-Oct-24 21:33N 42°32' E 005°41'2017.4
2014-Oct-24 20:24N 42°43' E 006°04'1918.0
2014-Oct-24 19:23N 42°50' E 006°27'1617.5
2014-Oct-24 18:28N 42°60' E 006°44'1617.5
2014-Oct-24 17:32N 43°10' E 007°02'1716.9
2014-Oct-24 16:33N 43°21' E 007°19'1616.3
2014-Oct-24 15:33N 43°31' E 007°37'1716.9
2014-Oct-24 14:33N 43°42' E 007°55'1717.4
2014-Oct-24 13:33N 43°53' E 008°13'1717.3
2014-Oct-24 12:33N 44°04' E 008°32'1717.3
2014-Oct-24 11:34N 44°14' E 008°50'10 9.9
2014-Oct-24 10:33N 44°24' E 008°55'1 0.8
2014-Oct-24 09:32N 44°24' E 008°54'0 0.0
2014-Oct-24 08:32N 44°24' E 008°54'0 0.0
2014-Oct-24 07:32N 44°24' E 008°54'0 0.0
2014-Oct-24 06:32N 44°24' E 008°54'0 0.0
2014-Oct-24 05:32N 44°24' E 008°54'0 0.0
2014-Oct-24 04:32N 44°24' E 008°54'0 0.0
2014-Oct-24 03:32N 44°24' E 008°54'0 0.0
2014-Oct-24 02:32N 44°24' E 008°54'0 0.0
2014-Oct-24 01:32N 44°24' E 008°54'0 0.0
2014-Oct-24 00:32N 44°24' E 008°54'0 0.0
2014-Oct-23 23:32N 44°24' E 008°54'0 0.0
2014-Oct-23 22:32N 44°24' E 008°54'0 0.0
2014-Oct-23 21:32N 44°24' E 008°54'0 0.0
2014-Oct-23 20:32N 44°24' E 008°54'0 0.0
2014-Oct-23 19:32N 44°24' E 008°54'0 0.0
2014-Oct-23 18:32N 44°24' E 008°54'0 0.0
2014-Oct-23 17:32N 44°24' E 008°54'0 0.0
2014-Oct-23 16:32N 44°24' E 008°54'0 0.0
2014-Oct-23 15:32N 44°24' E 008°54'1 1.2
2014-Oct-23 14:33N 44°24' E 008°55'9 9.4
2014-Oct-23 13:33N 44°16' E 009°04'1616.5
2014-Oct-23 12:34N 44°05' E 009°19'1716.9
2014-Oct-23 11:34N 43°52' E 009°35'1717.0
2014-Oct-23 10:33N 43°40' E 009°51'1615.9
2014-Oct-23 09:34N 43°31' E 010°09'7 7.3
2014-Oct-23 08:33N 43°35' E 010°18'0 0.0
2014-Oct-23 07:33N 43°35' E 010°18'0 0.0
2014-Oct-23 06:30N 43°35' E 010°18'0 0.0
2014-Oct-23 05:33N 43°35' E 010°18'0 0.0
2014-Oct-23 04:33N 43°35' E 010°18'0 0.0
2014-Oct-23 03:33N 43°35' E 010°18'0 0.0
2014-Oct-23 02:33N 43°35' E 010°18'0 0.0
2014-Oct-23 01:33N 43°35' E 010°18'0 0.0
2014-Oct-23 00:33N 43°35' E 010°18'0 0.0
2014-Oct-22 23:33N 43°35' E 010°18'0 0.0
2014-Oct-22 22:33N 43°35' E 010°18'0 0.0
2014-Oct-22 21:33N 43°35' E 010°18'0 0.0
2014-Oct-22 20:33N 43°35' E 010°18'0 0.0
2014-Oct-22 19:30N 43°35' E 010°18'0 0.0
2014-Oct-22 18:33N 43°35' E 010°18'0 0.0
2014-Oct-22 17:33N 43°35' E 010°18'0 0.0
2014-Oct-22 16:33N 43°35' E 010°18'0 0.0
2014-Oct-22 15:33N 43°35' E 010°18'0 0.0
2014-Oct-22 14:33N 43°35' E 010°18'0 0.0
2014-Oct-22 13:33N 43°35' E 010°18'0 0.0
2014-Oct-22 12:33N 43°35' E 010°18'0 0.0
2014-Oct-22 11:33N 43°35' E 010°18'0 0.0
2014-Oct-22 10:33N 43°35' E 010°18'0 0.0
2014-Oct-22 09:33N 43°35' E 010°18'0 0.0
2014-Oct-22 08:30N 43°35' E 010°18'0 0.0
2014-Oct-22 07:33N 43°35' E 010°18'0 0.0
2014-Oct-22 06:33N 43°35' E 010°18'2 1.9
2014-Oct-22 05:33N 43°33' E 010°17'5 5.2
2014-Oct-22 04:34N 43°29' E 010°12'2 2.4
2014-Oct-22 03:33N 43°27' E 010°13'1211.5
2014-Oct-22 02:33N 43°15' E 010°10'1211.6
2014-Oct-22 01:33N 43°04' E 010°07'1211.8
2014-Oct-22 00:33N 42°53' E 010°04'1410.6
2014-Oct-21 23:17N 42°39' E 010°09'7212.1
2014-Oct-21 17:22N 41°48' E 011°16'  

Dump ship's entire track history